Indianapolis, Indiana
Traffic Map
Current Weather Conditions
Indianapolis, Indiana
Few Clouds
Few Clouds
48°
Feels Like: 43°
Wind Chill: 43° Ceiling: Unl
Heat Index: 48° Visibility: 10mi
Dew Point: 41° Wind: 10mph
Humidity: 77% Direction: 220° (SW)
Pressure: 30.14in Gusts: 0mph
Raw Report DataKIND 221054Z 22009KT 10SM FEW080 FEW110 09/05 A3014 RMK AO2 SLP207 T00890050
Traffic Incident Summary
Active as of:
Severity:
Category:
InformationThere was an issue retrieving the traffic information for this location. Please try a different location or try again shortly.
Advertisements
Track Severe Weather on mobile